sensor_id;sensor_type;location;lat;lon;timestamp;P1;durP1;ratioP1;P2;durP2;ratioP2
8213;SDS011;4148;47.974;7.824;2022-07-23T00:00:33;10.50;;;9.57;;
8213;SDS011;4148;47.974;7.824;2022-07-23T00:03:04;9.67;;;8.77;;
8213;SDS011;4148;47.974;7.824;2022-07-23T00:05:32;12.90;;;10.83;;
8213;SDS011;4148;47.974;7.824;2022-07-23T00:08:04;12.73;;;10.70;;
8213;SDS011;4148;47.974;7.824;2022-07-23T00:10:37;10.27;;;9.07;;
8213;SDS011;4148;47.974;7.824;2022-07-23T00:13:05;8.83;;;7.93;;
8213;SDS011;4148;47.974;7.824;2022-07-23T00:15:33;9.23;;;8.20;;
8213;SDS011;4148;47.974;7.824;2022-07-23T00:18:01;9.17;;;8.27;;
8213;SDS011;4148;47.974;7.824;2022-07-23T00:20:29;10.17;;;8.40;;
8213;SDS011;4148;47.974;7.824;2022-07-23T00:22:57;8.87;;;8.07;;
8213;SDS011;4148;47.974;7.824;2022-07-23T00:25:27;8.50;;;7.70;;
8213;SDS011;4148;47.974;7.824;2022-07-23T00:27:56;9.33;;;8.20;;
8213;SDS011;4148;47.974;7.824;2022-07-23T00:30:25;8.80;;;7.63;;
8213;SDS011;4148;47.974;7.824;2022-07-23T00:32:56;8.70;;;7.90;;
8213;SDS011;4148;47.974;7.824;2022-07-23T00:35:26;8.73;;;7.77;;
8213;SDS011;4148;47.974;7.824;2022-07-23T00:37:55;9.17;;;8.27;;
8213;SDS011;4148;47.974;7.824;2022-07-23T00:40:25;9.03;;;8.10;;
8213;SDS011;4148;47.974;7.824;2022-07-23T00:42:55;8.00;;;7.30;;
8213;SDS011;4148;47.974;7.824;2022-07-23T00:45:23;8.27;;;7.57;;
8213;SDS011;4148;47.974;7.824;2022-07-23T00:47:51;7.90;;;7.07;;
8213;SDS011;4148;47.974;7.824;2022-07-23T00:50:19;12.30;;;7.50;;
8213;SDS011;4148;47.974;7.824;2022-07-23T00:52:47;8.47;;;7.57;;
8213;SDS011;4148;47.974;7.824;2022-07-23T00:55:16;8.37;;;7.60;;
8213;SDS011;4148;47.974;7.824;2022-07-23T00:57:45;7.90;;;7.10;;
8213;SDS011;4148;47.974;7.824;2022-07-23T01:00:14;8.93;;;8.13;;
8213;SDS011;4148;47.974;7.824;2022-07-23T01:02:44;8.80;;;7.90;;
8213;SDS011;4148;47.974;7.824;2022-07-23T01:05:14;8.00;;;7.30;;
8213;SDS011;4148;47.974;7.824;2022-07-23T01:07:42;11.90;;;8.10;;
8213;SDS011;4148;47.974;7.824;2022-07-23T01:10:11;7.90;;;7.10;;
8213;SDS011;4148;47.974;7.824;2022-07-23T01:12:58;8.90;;;8.03;;
8213;SDS011;4148;47.974;7.824;2022-07-23T01:15:27;9.40;;;8.60;;
8213;SDS011;4148;47.974;7.824;2022-07-23T01:17:55;8.53;;;7.83;;
8213;SDS011;4148;47.974;7.824;2022-07-23T01:20:23;9.23;;;8.30;;
8213;SDS011;4148;47.974;7.824;2022-07-23T01:22:52;8.93;;;8.00;;
8213;SDS011;4148;47.974;7.824;2022-07-23T01:25:20;9.70;;;8.80;;
8213;SDS011;4148;47.974;7.824;2022-07-23T01:27:49;12.63;;;8.97;;
8213;SDS011;4148;47.974;7.824;2022-07-23T01:30:18;10.17;;;8.77;;
8213;SDS011;4148;47.974;7.824;2022-07-23T01:32:46;9.17;;;8.17;;
8213;SDS011;4148;47.974;7.824;2022-07-23T01:35:14;17.77;;;11.47;;
8213;SDS011;4148;47.974;7.824;2022-07-23T01:37:42;20.20;;;12.40;;
8213;SDS011;4148;47.974;7.824;2022-07-23T01:40:11;15.53;;;10.47;;
8213;SDS011;4148;47.974;7.824;2022-07-23T01:42:39;15.63;;;11.50;;
8213;SDS011;4148;47.974;7.824;2022-07-23T01:45:07;18.47;;;11.83;;
8213;SDS011;4148;47.974;7.824;2022-07-23T01:47:36;18.37;;;10.57;;
8213;SDS011;4148;47.974;7.824;2022-07-23T01:50:04;13.80;;;10.90;;
8213;SDS011;4148;47.974;7.824;2022-07-23T01:52:33;14.20;;;10.50;;
8213;SDS011;4148;47.974;7.824;2022-07-23T01:55:00;15.80;;;11.17;;
8213;SDS011;4148;47.974;7.824;2022-07-23T01:57:30;12.90;;;10.80;;
8213;SDS011;4148;47.974;7.824;2022-07-23T01:59:58;13.90;;;11.03;;
8213;SDS011;4148;47.974;7.824;2022-07-23T02:02:26;13.93;;;11.60;;
8213;SDS011;4148;47.974;7.824;2022-07-23T02:04:54;12.97;;;10.50;;
8213;SDS011;4148;47.974;7.824;2022-07-23T02:07:21;13.93;;;11.00;;
8213;SDS011;4148;47.974;7.824;2022-07-23T02:09:49;12.57;;;11.27;;
8213;SDS011;4148;47.974;7.824;2022-07-23T02:12:17;12.30;;;11.00;;
8213;SDS011;4148;47.974;7.824;2022-07-23T02:14:46;12.67;;;10.90;;
8213;SDS011;4148;47.974;7.824;2022-07-23T02:17:14;13.47;;;11.27;;
8213;SDS011;4148;47.974;7.824;2022-07-23T02:19:42;14.10;;;11.67;;
8213;SDS011;4148;47.974;7.824;2022-07-23T02:22:10;11.20;;;10.10;;
8213;SDS011;4148;47.974;7.824;2022-07-23T02:24:38;11.80;;;9.80;;
8213;SDS011;4148;47.974;7.824;2022-07-23T02:27:06;13.03;;;11.73;;
8213;SDS011;4148;47.974;7.824;2022-07-23T02:29:34;11.27;;;10.17;;
8213;SDS011;4148;47.974;7.824;2022-07-23T02:32:03;12.07;;;10.80;;
8213;SDS011;4148;47.974;7.824;2022-07-23T02:34:33;12.53;;;10.10;;
8213;SDS011;4148;47.974;7.824;2022-07-23T02:37:00;12.87;;;11.57;;
8213;SDS011;4148;47.974;7.824;2022-07-23T02:39:28;10.87;;;9.50;;
8213;SDS011;4148;47.974;7.824;2022-07-23T02:41:56;11.50;;;10.40;;
8213;SDS011;4148;47.974;7.824;2022-07-23T02:44:24;12.30;;;10.73;;
8213;SDS011;4148;47.974;7.824;2022-07-23T02:46:52;12.60;;;10.60;;
8213;SDS011;4148;47.974;7.824;2022-07-23T02:49:21;13.30;;;11.20;;
8213;SDS011;4148;47.974;7.824;2022-07-23T02:51:49;16.13;;;11.83;;
8213;SDS011;4148;47.974;7.824;2022-07-23T02:54:18;12.37;;;10.23;;
8213;SDS011;4148;47.974;7.824;2022-07-23T02:56:46;12.43;;;11.23;;
8213;SDS011;4148;47.974;7.824;2022-07-23T02:59:14;12.57;;;10.97;;
8213;SDS011;4148;47.974;7.824;2022-07-23T03:01:41;11.37;;;10.07;;
8213;SDS011;4148;47.974;7.824;2022-07-23T03:04:10;13.33;;;11.60;;
8213;SDS011;4148;47.974;7.824;2022-07-23T03:06:40;12.20;;;10.90;;
8213;SDS011;4148;47.974;7.824;2022-07-23T03:09:07;12.07;;;10.90;;
8213;SDS011;4148;47.974;7.824;2022-07-23T03:11:36;11.47;;;10.27;;
8213;SDS011;4148;47.974;7.824;2022-07-23T03:14:03;12.50;;;10.30;;
8213;SDS011;4148;47.974;7.824;2022-07-23T03:16:32;11.70;;;10.50;;
8213;SDS011;4148;47.974;7.824;2022-07-23T03:19:00;12.43;;;10.53;;
8213;SDS011;4148;47.974;7.824;2022-07-23T03:21:31;13.00;;;11.20;;
8213;SDS011;4148;47.974;7.824;2022-07-23T03:24:01;12.63;;;11.37;;
8213;SDS011;4148;47.974;7.824;2022-07-23T03:26:29;12.87;;;11.47;;
8213;SDS011;4148;47.974;7.824;2022-07-23T03:28:57;11.40;;;10.20;;
8213;SDS011;4148;47.974;7.824;2022-07-23T03:31:28;11.57;;;10.47;;
8213;SDS011;4148;47.974;7.824;2022-07-23T03:33:56;11.80;;;10.60;;
8213;SDS011;4148;47.974;7.824;2022-07-23T03:36:24;10.80;;;9.70;;
8213;SDS011;4148;47.974;7.824;2022-07-23T03:38:53;12.83;;;10.80;;
8213;SDS011;4148;47.974;7.824;2022-07-23T03:41:22;12.00;;;10.80;;
8213;SDS011;4148;47.974;7.824;2022-07-23T03:43:50;12.80;;;10.00;;
8213;SDS011;4148;47.974;7.824;2022-07-23T03:46:18;11.50;;;10.40;;
8213;SDS011;4148;47.974;7.824;2022-07-23T03:48:46;11.77;;;10.43;;
8213;SDS011;4148;47.974;7.824;2022-07-23T03:51:14;11.90;;;10.27;;
8213;SDS011;4148;47.974;7.824;2022-07-23T03:53:42;11.90;;;9.23;;
8213;SDS011;4148;47.974;7.824;2022-07-23T03:56:10;10.73;;;9.63;;
8213;SDS011;4148;47.974;7.824;2022-07-23T03:58:39;12.77;;;11.33;;
8213;SDS011;4148;47.974;7.824;2022-07-23T04:01:07;11.30;;;10.20;;
8213;SDS011;4148;47.974;7.824;2022-07-23T04:03:35;12.20;;;11.00;;
8213;SDS011;4148;47.974;7.824;2022-07-23T04:06:03;12.27;;;10.53;;
8213;SDS011;4148;47.974;7.824;2022-07-23T04:08:31;14.83;;;10.97;;
8213;SDS011;4148;47.974;7.824;2022-07-23T04:10:59;12.57;;;11.40;;
8213;SDS011;4148;47.974;7.824;2022-07-23T04:13:27;11.50;;;10.47;;
8213;SDS011;4148;47.974;7.824;2022-07-23T04:15:56;12.50;;;11.20;;
8213;SDS011;4148;47.974;7.824;2022-07-23T04:18:24;14.17;;;12.67;;
8213;SDS011;4148;47.974;7.824;2022-07-23T04:20:52;15.93;;;11.57;;
8213;SDS011;4148;47.974;7.824;2022-07-23T04:23:20;11.10;;;10.10;;
8213;SDS011;4148;47.974;7.824;2022-07-23T04:25:52;12.40;;;11.20;;
8213;SDS011;4148;47.974;7.824;2022-07-23T04:28:20;13.97;;;12.57;;
8213;SDS011;4148;47.974;7.824;2022-07-23T04:30:48;12.80;;;11.40;;
8213;SDS011;4148;47.974;7.824;2022-07-23T04:33:17;12.27;;;11.07;;
8213;SDS011;4148;47.974;7.824;2022-07-23T04:35:46;11.57;;;10.37;;
8213;SDS011;4148;47.974;7.824;2022-07-23T04:38:13;12.63;;;11.33;;
8213;SDS011;4148;47.974;7.824;2022-07-23T04:40:41;12.77;;;11.47;;
8213;SDS011;4148;47.974;7.824;2022-07-23T04:43:09;12.60;;;11.13;;
8213;SDS011;4148;47.974;7.824;2022-07-23T04:45:37;11.53;;;10.47;;
8213;SDS011;4148;47.974;7.824;2022-07-23T04:48:05;12.90;;;11.13;;
8213;SDS011;4148;47.974;7.824;2022-07-23T04:50:34;12.47;;;11.33;;
8213;SDS011;4148;47.974;7.824;2022-07-23T04:53:02;11.97;;;10.87;;
8213;SDS011;4148;47.974;7.824;2022-07-23T04:55:30;13.43;;;12.10;;
8213;SDS011;4148;47.974;7.824;2022-07-23T04:57:58;13.17;;;11.87;;
8213;SDS011;4148;47.974;7.824;2022-07-23T05:00:26;12.00;;;10.80;;
8213;SDS011;4148;47.974;7.824;2022-07-23T05:02:54;12.50;;;11.20;;
8213;SDS011;4148;47.974;7.824;2022-07-23T05:05:22;15.97;;;12.63;;
8213;SDS011;4148;47.974;7.824;2022-07-23T05:07:51;13.37;;;12.07;;
8213;SDS011;4148;47.974;7.824;2022-07-23T05:10:19;15.23;;;12.00;;
8213;SDS011;4148;47.974;7.824;2022-07-23T05:12:47;13.50;;;12.13;;
8213;SDS011;4148;47.974;7.824;2022-07-23T05:15:15;12.87;;;11.67;;
8213;SDS011;4148;47.974;7.824;2022-07-23T05:17:43;14.43;;;11.87;;
8213;SDS011;4148;47.974;7.824;2022-07-23T05:20:11;14.67;;;11.40;;
8213;SDS011;4148;47.974;7.824;2022-07-23T05:22:39;11.83;;;10.37;;
8213;SDS011;4148;47.974;7.824;2022-07-23T05:25:09;11.67;;;10.57;;
8213;SDS011;4148;47.974;7.824;2022-07-23T05:27:36;11.53;;;10.53;;
8213;SDS011;4148;47.974;7.824;2022-07-23T05:30:05;11.40;;;10.30;;
8213;SDS011;4148;47.974;7.824;2022-07-23T05:32:33;12.37;;;11.17;;
8213;SDS011;4148;47.974;7.824;2022-07-23T05:35:03;13.60;;;12.30;;
8213;SDS011;4148;47.974;7.824;2022-07-23T05:37:31;12.40;;;11.20;;
8213;SDS011;4148;47.974;7.824;2022-07-23T05:40:00;12.20;;;10.90;;
8213;SDS011;4148;47.974;7.824;2022-07-23T05:42:30;12.57;;;11.37;;
8213;SDS011;4148;47.974;7.824;2022-07-23T05:44:58;12.90;;;11.70;;
8213;SDS011;4148;47.974;7.824;2022-07-23T05:47:27;12.50;;;11.23;;
8213;SDS011;4148;47.974;7.824;2022-07-23T05:49:54;13.97;;;11.50;;
8213;SDS011;4148;47.974;7.824;2022-07-23T05:52:28;12.30;;;11.07;;
8213;SDS011;4148;47.974;7.824;2022-07-23T05:54:56;12.50;;;11.30;;
8213;SDS011;4148;47.974;7.824;2022-07-23T05:57:24;13.83;;;12.40;;
8213;SDS011;4148;47.974;7.824;2022-07-23T05:59:53;13.23;;;11.17;;
8213;SDS011;4148;47.974;7.824;2022-07-23T06:02:21;12.43;;;11.13;;
8213;SDS011;4148;47.974;7.824;2022-07-23T06:04:49;12.67;;;11.17;;
8213;SDS011;4148;47.974;7.824;2022-07-23T06:07:17;12.63;;;10.80;;
8213;SDS011;4148;47.974;7.824;2022-07-23T06:09:45;12.27;;;11.07;;
8213;SDS011;4148;47.974;7.824;2022-07-23T06:12:15;14.23;;;11.37;;
8213;SDS011;4148;47.974;7.824;2022-07-23T06:14:43;12.40;;;11.10;;
8213;SDS011;4148;47.974;7.824;2022-07-23T06:17:12;13.57;;;12.23;;
8213;SDS011;4148;47.974;7.824;2022-07-23T06:19:40;13.23;;;12.00;;
8213;SDS011;4148;47.974;7.824;2022-07-23T06:22:08;12.67;;;11.47;;
8213;SDS011;4148;47.974;7.824;2022-07-23T06:24:36;12.43;;;11.13;;
8213;SDS011;4148;47.974;7.824;2022-07-23T06:27:04;17.20;;;11.07;;
8213;SDS011;4148;47.974;7.824;2022-07-23T06:29:32;12.00;;;10.80;;
8213;SDS011;4148;47.974;7.824;2022-07-23T06:32:00;13.93;;;11.50;;
8213;SDS011;4148;47.974;7.824;2022-07-23T06:34:30;12.43;;;11.07;;
8213;SDS011;4148;47.974;7.824;2022-07-23T06:36:58;11.87;;;10.70;;
8213;SDS011;4148;47.974;7.824;2022-07-23T06:39:27;12.03;;;10.90;;
8213;SDS011;4148;47.974;7.824;2022-07-23T06:41:55;12.03;;;10.93;;
8213;SDS011;4148;47.974;7.824;2022-07-23T06:44:26;11.53;;;10.33;;
8213;SDS011;4148;47.974;7.824;2022-07-23T06:46:54;12.33;;;10.80;;
8213;SDS011;4148;47.974;7.824;2022-07-23T06:49:22;10.90;;;9.80;;
8213;SDS011;4148;47.974;7.824;2022-07-23T06:51:51;10.83;;;9.73;;
8213;SDS011;4148;47.974;7.824;2022-07-23T06:54:19;10.60;;;9.60;;
8213;SDS011;4148;47.974;7.824;2022-07-23T06:56:47;11.13;;;10.00;;
8213;SDS011;4148;47.974;7.824;2022-07-23T06:59:15;11.47;;;10.37;;
8213;SDS011;4148;47.974;7.824;2022-07-23T07:01:43;13.20;;;10.83;;
8213;SDS011;4148;47.974;7.824;2022-07-23T07:04:11;12.00;;;10.90;;
8213;SDS011;4148;47.974;7.824;2022-07-23T07:06:38;12.40;;;11.17;;
8213;SDS011;4148;47.974;7.824;2022-07-23T07:09:08;11.03;;;9.93;;
8213;SDS011;4148;47.974;7.824;2022-07-23T07:11:36;12.00;;;10.90;;
8213;SDS011;4148;47.974;7.824;2022-07-23T07:14:04;11.90;;;10.73;;
8213;SDS011;4148;47.974;7.824;2022-07-23T07:16:32;13.47;;;12.17;;
8213;SDS011;4148;47.974;7.824;2022-07-23T07:19:00;12.50;;;11.23;;
8213;SDS011;4148;47.974;7.824;2022-07-23T07:21:29;13.70;;;11.33;;
8213;SDS011;4148;47.974;7.824;2022-07-23T07:23:57;12.50;;;10.90;;
8213;SDS011;4148;47.974;7.824;2022-07-23T07:26:26;12.00;;;10.90;;
8213;SDS011;4148;47.974;7.824;2022-07-23T07:28:54;11.33;;;10.13;;
8213;SDS011;4148;47.974;7.824;2022-07-23T07:31:22;11.17;;;10.17;;
8213;SDS011;4148;47.974;7.824;2022-07-23T07:33:50;11.20;;;10.20;;
8213;SDS011;4148;47.974;7.824;2022-07-23T07:36:18;12.70;;;10.40;;
8213;SDS011;4148;47.974;7.824;2022-07-23T07:38:46;11.77;;;10.63;;
8213;SDS011;4148;47.974;7.824;2022-07-23T07:41:14;12.80;;;11.50;;
8213;SDS011;4148;47.974;7.824;2022-07-23T07:43:44;11.13;;;10.00;;
8213;SDS011;4148;47.974;7.824;2022-07-23T07:46:12;11.60;;;10.60;;
8213;SDS011;4148;47.974;7.824;2022-07-23T07:48:40;13.00;;;9.50;;
8213;SDS011;4148;47.974;7.824;2022-07-23T07:51:08;11.70;;;10.70;;
8213;SDS011;4148;47.974;7.824;2022-07-23T07:53:36;12.23;;;11.03;;
8213;SDS011;4148;47.974;7.824;2022-07-23T07:56:05;10.10;;;9.20;;
8213;SDS011;4148;47.974;7.824;2022-07-23T07:58:33;11.30;;;10.20;;
8213;SDS011;4148;47.974;7.824;2022-07-23T08:01:03;10.90;;;9.90;;
8213;SDS011;4148;47.974;7.824;2022-07-23T08:03:31;10.40;;;9.40;;
8213;SDS011;4148;47.974;7.824;2022-07-23T08:05:59;10.43;;;9.43;;
8213;SDS011;4148;47.974;7.824;2022-07-23T08:08:27;10.10;;;9.10;;
8213;SDS011;4148;47.974;7.824;2022-07-23T08:10:55;11.57;;;10.50;;
8213;SDS011;4148;47.974;7.824;2022-07-23T08:13:22;11.50;;;10.37;;
8213;SDS011;4148;47.974;7.824;2022-07-23T08:15:50;11.90;;;10.70;;
8213;SDS011;4148;47.974;7.824;2022-07-23T08:18:21;10.83;;;9.83;;
8213;SDS011;4148;47.974;7.824;2022-07-23T08:20:49;11.33;;;10.00;;
8213;SDS011;4148;47.974;7.824;2022-07-23T08:23:17;11.23;;;9.87;;
8213;SDS011;4148;47.974;7.824;2022-07-23T08:25:45;12.47;;;11.17;;
8213;SDS011;4148;47.974;7.824;2022-07-23T08:28:14;12.00;;;10.87;;
8213;SDS011;4148;47.974;7.824;2022-07-23T08:30:43;10.67;;;9.67;;
8213;SDS011;4148;47.974;7.824;2022-07-23T08:33:13;12.10;;;10.43;;
8213;SDS011;4148;47.974;7.824;2022-07-23T08:36:01;11.27;;;9.77;;
8213;SDS011;4148;47.974;7.824;2022-07-23T08:38:30;10.77;;;9.50;;
8213;SDS011;4148;47.974;7.824;2022-07-23T08:40:59;9.67;;;8.77;;
8213;SDS011;4148;47.974;7.824;2022-07-23T08:43:28;10.83;;;9.50;;
8213;SDS011;4148;47.974;7.824;2022-07-23T08:45:58;11.17;;;10.17;;
8213;SDS011;4148;47.974;7.824;2022-07-23T08:48:28;10.20;;;9.30;;
8213;SDS011;4148;47.974;7.824;2022-07-23T08:50:58;11.77;;;10.67;;
8213;SDS011;4148;47.974;7.824;2022-07-23T08:53:29;10.27;;;9.37;;
8213;SDS011;4148;47.974;7.824;2022-07-23T08:55:58;10.67;;;9.60;;
8213;SDS011;4148;47.974;7.824;2022-07-23T08:58:29;9.37;;;8.53;;
8213;SDS011;4148;47.974;7.824;2022-07-23T09:00:57;10.80;;;9.70;;
8213;SDS011;4148;47.974;7.824;2022-07-23T09:03:26;10.60;;;9.60;;
8213;SDS011;4148;47.974;7.824;2022-07-23T09:05:56;10.30;;;9.40;;
8213;SDS011;4148;47.974;7.824;2022-07-23T09:08:26;9.97;;;9.17;;
8213;SDS011;4148;47.974;7.824;2022-07-23T09:11:05;9.93;;;8.83;;
8213;SDS011;4148;47.974;7.824;2022-07-23T09:13:35;10.90;;;9.87;;
8213;SDS011;4148;47.974;7.824;2022-07-23T09:16:06;10.27;;;9.47;;
8213;SDS011;4148;47.974;7.824;2022-07-23T09:18:36;9.37;;;8.33;;
8213;SDS011;4148;47.974;7.824;2022-07-23T09:21:16;10.70;;;8.83;;
8213;SDS011;4148;47.974;7.824;2022-07-23T09:23:48;10.10;;;9.20;;
8213;SDS011;4148;47.974;7.824;2022-07-23T09:26:25;13.83;;;10.20;;
8213;SDS011;4148;47.974;7.824;2022-07-23T09:29:08;10.30;;;9.40;;
8213;SDS011;4148;47.974;7.824;2022-07-23T09:31:47;11.40;;;10.30;;
8213;SDS011;4148;47.974;7.824;2022-07-23T09:34:18;9.90;;;9.00;;
8213;SDS011;4148;47.974;7.824;2022-07-23T09:36:50;9.83;;;9.00;;
8213;SDS011;4148;47.974;7.824;2022-07-23T09:39:28;11.27;;;10.17;;
8213;SDS011;4148;47.974;7.824;2022-07-23T09:41:57;13.53;;;9.33;;
8213;SDS011;4148;47.974;7.824;2022-07-23T09:44:40;11.60;;;10.50;;
8213;SDS011;4148;47.974;7.824;2022-07-23T09:47:09;11.50;;;10.00;;
8213;SDS011;4148;47.974;7.824;2022-07-23T09:49:37;10.27;;;9.30;;
8213;SDS011;4148;47.974;7.824;2022-07-23T09:52:05;10.50;;;9.50;;
8213;SDS011;4148;47.974;7.824;2022-07-23T09:54:35;10.20;;;9.20;;
8213;SDS011;4148;47.974;7.824;2022-07-23T09:57:05;9.97;;;9.07;;
8213;SDS011;4148;47.974;7.824;2022-07-23T09:59:36;9.67;;;8.77;;
8213;SDS011;4148;47.974;7.824;2022-07-23T10:02:06;9.40;;;8.60;;
8213;SDS011;4148;47.974;7.824;2022-07-23T10:04:35;10.47;;;9.37;;
8213;SDS011;4148;47.974;7.824;2022-07-23T10:07:04;9.63;;;8.73;;
8213;SDS011;4148;47.974;7.824;2022-07-23T10:09:36;10.10;;;9.10;;
8213;SDS011;4148;47.974;7.824;2022-07-23T10:12:05;10.40;;;9.13;;
8213;SDS011;4148;47.974;7.824;2022-07-23T10:14:45;9.80;;;8.80;;
8213;SDS011;4148;47.974;7.824;2022-07-23T10:17:14;9.37;;;8.47;;
8213;SDS011;4148;47.974;7.824;2022-07-23T10:19:42;11.10;;;10.10;;
8213;SDS011;4148;47.974;7.824;2022-07-23T10:22:13;10.00;;;9.10;;
8213;SDS011;4148;47.974;7.824;2022-07-23T10:24:52;11.13;;;10.20;;
8213;SDS011;4148;47.974;7.824;2022-07-23T10:30:20;10.70;;;9.60;;
8213;SDS011;4148;47.974;7.824;2022-07-23T10:32:59;10.20;;;9.30;;
8213;SDS011;4148;47.974;7.824;2022-07-23T10:35:40;10.63;;;9.63;;
8213;SDS011;4148;47.974;7.824;2022-07-23T10:38:18;10.33;;;9.33;;
8213;SDS011;4148;47.974;7.824;2022-07-23T10:40:57;10.47;;;9.47;;
8213;SDS011;4148;47.974;7.824;2022-07-23T10:43:26;11.37;;;10.00;;
8213;SDS011;4148;47.974;7.824;2022-07-23T10:45:56;10.70;;;9.50;;
8213;SDS011;4148;47.974;7.824;2022-07-23T10:54:52;11.33;;;10.20;;
8213;SDS011;4148;47.974;7.824;2022-07-23T10:57:24;13.50;;;11.33;;
8213;SDS011;4148;47.974;7.824;2022-07-23T11:00:08;11.00;;;10.10;;
8213;SDS011;4148;47.974;7.824;2022-07-23T11:02:42;11.00;;;10.00;;
8213;SDS011;4148;47.974;7.824;2022-07-23T11:05:13;11.70;;;10.60;;
8213;SDS011;4148;47.974;7.824;2022-07-23T11:10:41;12.60;;;11.40;;
8213;SDS011;4148;47.974;7.824;2022-07-23T11:13:31;12.17;;;11.07;;
8213;SDS011;4148;47.974;7.824;2022-07-23T11:16:07;12.40;;;11.30;;
8213;SDS011;4148;47.974;7.824;2022-07-23T11:18:52;12.90;;;11.67;;
8213;SDS011;4148;47.974;7.824;2022-07-23T11:21:44;12.77;;;11.67;;
8213;SDS011;4148;47.974;7.824;2022-07-23T11:24:23;12.97;;;11.50;;
8213;SDS011;4148;47.974;7.824;2022-07-23T11:29:39;12.13;;;10.93;;
8213;SDS011;4148;47.974;7.824;2022-07-23T11:37:54;13.13;;;11.80;;
8213;SDS011;4148;47.974;7.824;2022-07-23T11:40:29;12.50;;;11.30;;
8213;SDS011;4148;47.974;7.824;2022-07-23T11:42:58;12.87;;;11.67;;
8213;SDS011;4148;47.974;7.824;2022-07-23T11:45:32;12.13;;;11.00;;
8213;SDS011;4148;47.974;7.824;2022-07-23T11:48:02;11.60;;;10.60;;
8213;SDS011;4148;47.974;7.824;2022-07-23T11:50:31;12.87;;;11.67;;
8213;SDS011;4148;47.974;7.824;2022-07-23T11:52:59;11.73;;;10.60;;
8213;SDS011;4148;47.974;7.824;2022-07-23T11:55:28;11.57;;;10.63;;
8213;SDS011;4148;47.974;7.824;2022-07-23T11:57:57;11.23;;;10.33;;
8213;SDS011;4148;47.974;7.824;2022-07-23T12:00:26;13.53;;;12.13;;
8213;SDS011;4148;47.974;7.824;2022-07-23T12:02:57;11.80;;;10.70;;
8213;SDS011;4148;47.974;7.824;2022-07-23T12:05:28;11.87;;;10.87;;
8213;SDS011;4148;47.974;7.824;2022-07-23T12:07:57;12.17;;;9.80;;
8213;SDS011;4148;47.974;7.824;2022-07-23T12:10:27;11.43;;;10.43;;
8213;SDS011;4148;47.974;7.824;2022-07-23T12:12:57;11.83;;;10.80;;
8213;SDS011;4148;47.974;7.824;2022-07-23T12:15:28;11.83;;;10.70;;
8213;SDS011;4148;47.974;7.824;2022-07-23T12:18:00;11.00;;;10.10;;
8213;SDS011;4148;47.974;7.824;2022-07-23T12:20:30;12.20;;;11.10;;
8213;SDS011;4148;47.974;7.824;2022-07-23T12:23:00;12.20;;;11.10;;
8213;SDS011;4148;47.974;7.824;2022-07-23T12:25:29;12.87;;;11.67;;
8213;SDS011;4148;47.974;7.824;2022-07-23T12:28:00;10.90;;;10.00;;
8213;SDS011;4148;47.974;7.824;2022-07-23T12:30:32;11.30;;;10.30;;
8213;SDS011;4148;47.974;7.824;2022-07-23T12:33:03;11.60;;;10.43;;
8213;SDS011;4148;47.974;7.824;2022-07-23T12:35:33;11.77;;;10.67;;
8213;SDS011;4148;47.974;7.824;2022-07-23T12:38:04;11.43;;;10.43;;
8213;SDS011;4148;47.974;7.824;2022-07-23T12:40:34;12.03;;;10.93;;
8213;SDS011;4148;47.974;7.824;2022-07-23T12:43:04;11.43;;;10.10;;
8213;SDS011;4148;47.974;7.824;2022-07-23T12:45:46;11.17;;;10.27;;
8213;SDS011;4148;47.974;7.824;2022-07-23T12:48:19;11.27;;;10.37;;
8213;SDS011;4148;47.974;7.824;2022-07-23T12:50:49;12.17;;;10.97;;
8213;SDS011;4148;47.974;7.824;2022-07-23T12:53:19;9.87;;;9.07;;
8213;SDS011;4148;47.974;7.824;2022-07-23T12:55:50;11.27;;;10.27;;
8213;SDS011;4148;47.974;7.824;2022-07-23T12:58:42;14.70;;;11.10;;
8213;SDS011;4148;47.974;7.824;2022-07-23T13:01:26;11.87;;;10.67;;
8213;SDS011;4148;47.974;7.824;2022-07-23T13:03:59;11.67;;;10.77;;
8213;SDS011;4148;47.974;7.824;2022-07-23T13:06:38;11.43;;;10.37;;
8213;SDS011;4148;47.974;7.824;2022-07-23T13:09:08;10.33;;;9.43;;
8213;SDS011;4148;47.974;7.824;2022-07-23T13:11:39;10.83;;;9.93;;
8213;SDS011;4148;47.974;7.824;2022-07-23T13:14:07;11.70;;;10.60;;
8213;SDS011;4148;47.974;7.824;2022-07-23T13:16:35;11.53;;;10.57;;
8213;SDS011;4148;47.974;7.824;2022-07-23T13:19:05;11.07;;;10.07;;
8213;SDS011;4148;47.974;7.824;2022-07-23T13:21:37;11.87;;;10.87;;
8213;SDS011;4148;47.974;7.824;2022-07-23T13:24:06;12.13;;;10.93;;
8213;SDS011;4148;47.974;7.824;2022-07-23T13:26:35;10.93;;;9.93;;
8213;SDS011;4148;47.974;7.824;2022-07-23T13:29:03;11.57;;;10.57;;
8213;SDS011;4148;47.974;7.824;2022-07-23T13:31:34;11.83;;;10.70;;
8213;SDS011;4148;47.974;7.824;2022-07-23T13:34:05;11.90;;;10.70;;
8213;SDS011;4148;47.974;7.824;2022-07-23T13:36:33;12.07;;;10.63;;
8213;SDS011;4148;47.974;7.824;2022-07-23T13:39:02;11.73;;;10.63;;
8213;SDS011;4148;47.974;7.824;2022-07-23T13:41:34;10.80;;;9.80;;
8213;SDS011;4148;47.974;7.824;2022-07-23T13:44:03;12.33;;;11.30;;
8213;SDS011;4148;47.974;7.824;2022-07-23T13:46:32;11.73;;;10.63;;
8213;SDS011;4148;47.974;7.824;2022-07-23T13:49:00;11.17;;;10.07;;
8213;SDS011;4148;47.974;7.824;2022-07-23T13:51:33;11.17;;;10.27;;
8213;SDS011;4148;47.974;7.824;2022-07-23T13:54:02;11.73;;;10.73;;
8213;SDS011;4148;47.974;7.824;2022-07-23T13:56:34;11.30;;;10.30;;
8213;SDS011;4148;47.974;7.824;2022-07-23T13:59:02;11.50;;;10.40;;
8213;SDS011;4148;47.974;7.824;2022-07-23T14:01:32;11.83;;;10.63;;
8213;SDS011;4148;47.974;7.824;2022-07-23T14:04:20;10.93;;;9.93;;
8213;SDS011;4148;47.974;7.824;2022-07-23T14:06:49;10.83;;;9.83;;
8213;SDS011;4148;47.974;7.824;2022-07-23T14:09:20;10.77;;;9.87;;
8213;SDS011;4148;47.974;7.824;2022-07-23T14:11:48;10.93;;;9.93;;
8213;SDS011;4148;47.974;7.824;2022-07-23T14:14:17;10.03;;;9.17;;
8213;SDS011;4148;47.974;7.824;2022-07-23T14:16:45;10.67;;;9.83;;
8213;SDS011;4148;47.974;7.824;2022-07-23T14:19:13;10.50;;;9.60;;
8213;SDS011;4148;47.974;7.824;2022-07-23T14:21:42;11.00;;;9.77;;
8213;SDS011;4148;47.974;7.824;2022-07-23T14:24:11;9.47;;;8.67;;
8213;SDS011;4148;47.974;7.824;2022-07-23T14:26:39;10.50;;;9.60;;
8213;SDS011;4148;47.974;7.824;2022-07-23T14:29:08;11.23;;;10.13;;
8213;SDS011;4148;47.974;7.824;2022-07-23T14:31:37;11.23;;;10.07;;
8213;SDS011;4148;47.974;7.824;2022-07-23T14:34:05;11.27;;;10.17;;
8213;SDS011;4148;47.974;7.824;2022-07-23T14:36:33;10.30;;;9.40;;
8213;SDS011;4148;47.974;7.824;2022-07-23T14:39:04;11.43;;;10.30;;
8213;SDS011;4148;47.974;7.824;2022-07-23T14:41:36;10.53;;;9.43;;
8213;SDS011;4148;47.974;7.824;2022-07-23T14:44:05;10.80;;;9.90;;
8213;SDS011;4148;47.974;7.824;2022-07-23T14:46:35;11.50;;;9.93;;
8213;SDS011;4148;47.974;7.824;2022-07-23T14:49:04;10.83;;;9.93;;
8213;SDS011;4148;47.974;7.824;2022-07-23T14:51:33;11.00;;;10.00;;
8213;SDS011;4148;47.974;7.824;2022-07-23T14:54:01;11.60;;;10.50;;
8213;SDS011;4148;47.974;7.824;2022-07-23T14:56:29;10.50;;;9.43;;
8213;SDS011;4148;47.974;7.824;2022-07-23T14:58:58;11.57;;;10.20;;
8213;SDS011;4148;47.974;7.824;2022-07-23T15:01:27;12.67;;;10.23;;
8213;SDS011;4148;47.974;7.824;2022-07-23T15:03:55;11.70;;;10.70;;
8213;SDS011;4148;47.974;7.824;2022-07-23T15:06:43;11.57;;;10.47;;
8213;SDS011;4148;47.974;7.824;2022-07-23T15:09:11;11.00;;;10.10;;
8213;SDS011;4148;47.974;7.824;2022-07-23T15:11:40;12.40;;;11.27;;
8213;SDS011;4148;47.974;7.824;2022-07-23T15:14:10;11.77;;;10.60;;
8213;SDS011;4148;47.974;7.824;2022-07-23T15:16:50;11.70;;;10.70;;
8213;SDS011;4148;47.974;7.824;2022-07-23T15:19:19;11.57;;;9.80;;
8213;SDS011;4148;47.974;7.824;2022-07-23T15:21:47;11.73;;;10.63;;
8213;SDS011;4148;47.974;7.824;2022-07-23T15:24:14;12.07;;;10.97;;
8213;SDS011;4148;47.974;7.824;2022-07-23T15:26:43;11.13;;;10.13;;
8213;SDS011;4148;47.974;7.824;2022-07-23T15:29:13;11.87;;;10.63;;